sensor_id;sensor_type;location;lat;lon;timestamp;temperature;humidity
22676;DHT22;12521;43.310;21.876;2024-01-30T00:35:33;3.3;96.0
22676;DHT22;12521;43.310;21.876;2024-01-30T00:40:11;3.3;96.0
22676;DHT22;12521;43.310;21.876;2024-01-30T00:44:47;3.3;96.0
22676;DHT22;12521;43.310;21.876;2024-01-30T00:49:23;3.3;96.0
22676;DHT22;12521;43.310;21.876;2024-01-30T00:53:59;3.3;96.0
22676;DHT22;12521;43.310;21.876;2024-01-30T00:58:35;3.3;96.0
22676;DHT22;12521;43.310;21.876;2024-01-30T01:12:23;2.9;96.0
22676;DHT22;12521;43.310;21.876;2024-01-30T01:16:59;2.9;96.0
22676;DHT22;12521;43.310;21.876;2024-01-30T01:21:35;2.9;96.0
22676;DHT22;12521;43.310;21.876;2024-01-30T01:26:13;2.9;96.0
22676;DHT22;12521;43.310;21.876;2024-01-30T01:30:49;2.9;96.0
22676;DHT22;12521;43.310;21.876;2024-01-30T01:35:26;2.9;96.0
22676;DHT22;12521;43.310;21.876;2024-01-30T01:40:08;2.9;96.0
22676;DHT22;12521;43.310;21.876;2024-01-30T02:12:49;2.2;96.0
22676;DHT22;12521;43.310;21.876;2024-01-30T02:17:25;2.2;96.0
22676;DHT22;12521;43.310;21.876;2024-01-30T02:22:01;2.2;96.0
22676;DHT22;12521;43.310;21.876;2024-01-30T02:26:37;2.2;96.0
22676;DHT22;12521;43.310;21.876;2024-01-30T02:31:13;2.2;96.0
22676;DHT22;12521;43.310;21.876;2024-01-30T02:35:49;2.2;96.0
22676;DHT22;12521;43.310;21.876;2024-01-30T02:40:25;2.2;96.0
22676;DHT22;12521;43.310;21.876;2024-01-30T02:45:02;2.2;96.0
22676;DHT22;12521;43.310;21.876;2024-01-30T02:49:38;2.2;96.0
22676;DHT22;12521;43.310;21.876;2024-01-30T02:54:15;2.2;96.0
22676;DHT22;12521;43.310;21.876;2024-01-30T02:58:51;2.2;96.0
22676;DHT22;12521;43.310;21.876;2024-01-30T03:54:08;1.8;96.0
22676;DHT22;12521;43.310;21.876;2024-01-30T03:58:44;1.8;96.0
22676;DHT22;12521;43.310;21.876;2024-01-30T04:03:20;1.8;96.0
22676;DHT22;12521;43.310;21.876;2024-01-30T04:07:57;1.8;96.0
22676;DHT22;12521;43.310;21.876;2024-01-30T04:12:35;1.7;96.0
22676;DHT22;12521;43.310;21.876;2024-01-30T04:17:12;1.7;96.0
22676;DHT22;12521;43.310;21.876;2024-01-30T04:21:48;1.7;96.0
22676;DHT22;12521;43.310;21.876;2024-01-30T04:26:25;1.6;96.0
22676;DHT22;12521;43.310;21.876;2024-01-30T04:31:02;1.6;96.0
22676;DHT22;12521;43.310;21.876;2024-01-30T04:35:39;1.6;96.0
22676;DHT22;12521;43.310;21.876;2024-01-30T04:40:16;1.6;96.0
22676;DHT22;12521;43.310;21.876;2024-01-30T04:54:06;1.0;96.0
22676;DHT22;12521;43.310;21.876;2024-01-30T04:58:42;1.0;96.0
22676;DHT22;12521;43.310;21.876;2024-01-30T05:03:20;1.0;96.0
22676;DHT22;12521;43.310;21.876;2024-01-30T05:07:56;1.0;96.0
22676;DHT22;12521;43.310;21.876;2024-01-30T05:12:32;1.0;96.0
22676;DHT22;12521;43.310;21.876;2024-01-30T05:17:08;1.0;96.0
22676;DHT22;12521;43.310;21.876;2024-01-30T05:21:44;1.0;96.0
22676;DHT22;12521;43.310;21.876;2024-01-30T06:35:25;0.6;96.0
22676;DHT22;12521;43.310;21.876;2024-01-30T06:40:01;0.6;96.0
22676;DHT22;12521;43.310;21.876;2024-01-30T06:44:37;0.6;96.0
22676;DHT22;12521;43.310;21.876;2024-01-30T06:49:13;0.6;96.0
22676;DHT22;12521;43.310;21.876;2024-01-30T06:53:50;0.6;96.0
22676;DHT22;12521;43.310;21.876;2024-01-30T06:58:27;0.6;96.0
22676;DHT22;12521;43.310;21.876;2024-01-30T07:12:18;0.7;96.0
22676;DHT22;12521;43.310;21.876;2024-01-30T07:16:55;0.7;96.0
22676;DHT22;12521;43.310;21.876;2024-01-30T07:21:32;0.7;96.0
22676;DHT22;12521;43.310;21.876;2024-01-30T07:26:10;0.7;96.0
22676;DHT22;12521;43.310;21.876;2024-01-30T07:30:47;0.7;96.0
22676;DHT22;12521;43.310;21.876;2024-01-30T07:35:24;0.7;96.0
22676;DHT22;12521;43.310;21.876;2024-01-30T07:40:04;0.7;96.0
22676;DHT22;12521;43.310;21.876;2024-01-30T08:12:18;1.5;96.0
22676;DHT22;12521;43.310;21.876;2024-01-30T08:16:54;1.5;96.0
22676;DHT22;12521;43.310;21.876;2024-01-30T08:21:31;1.5;96.0
22676;DHT22;12521;43.310;21.876;2024-01-30T08:26:07;1.5;96.0
22676;DHT22;12521;43.310;21.876;2024-01-30T08:30:44;1.5;96.0
22676;DHT22;12521;43.310;21.876;2024-01-30T08:35:20;1.8;96.0
22676;DHT22;12521;43.310;21.876;2024-01-30T08:39:57;1.8;96.0
22676;DHT22;12521;43.310;21.876;2024-01-30T08:44:33;2.0;96.0
22676;DHT22;12521;43.310;21.876;2024-01-30T08:49:09;2.0;96.0
22676;DHT22;12521;43.310;21.876;2024-01-30T08:53:45;2.2;96.0
22676;DHT22;12521;43.310;21.876;2024-01-30T08:58:22;2.2;96.0
22676;DHT22;12521;43.310;21.876;2024-01-30T09:02:58;2.4;96.0
22676;DHT22;12521;43.310;21.876;2024-01-30T09:07:34;2.4;96.0
22676;DHT22;12521;43.310;21.876;2024-01-30T09:12:10;2.4;96.0
22676;DHT22;12521;43.310;21.876;2024-01-30T09:16:46;2.4;96.0
22676;DHT22;12521;43.310;21.876;2024-01-30T09:21:22;2.4;96.0
22676;DHT22;12521;43.310;21.876;2024-01-30T09:53:52;3.4;96.0
22676;DHT22;12521;43.310;21.876;2024-01-30T09:58:29;3.4;96.0
22676;DHT22;12521;43.310;21.876;2024-01-30T10:03:06;3.4;96.0
22676;DHT22;12521;43.310;21.876;2024-01-30T10:07:57;3.4;96.0
22676;DHT22;12521;43.310;21.876;2024-01-30T10:12:33;3.6;96.0
22676;DHT22;12521;43.310;21.876;2024-01-30T10:17:13;3.6;96.0
22676;DHT22;12521;43.310;21.876;2024-01-30T10:21:50;3.6;96.0
22676;DHT22;12521;43.310;21.876;2024-01-30T10:26:26;3.8;96.0
22676;DHT22;12521;43.310;21.876;2024-01-30T10:31:04;3.8;96.0
22676;DHT22;12521;43.310;21.876;2024-01-30T10:35:40;3.8;96.0
22676;DHT22;12521;43.310;21.876;2024-01-30T10:40:24;3.8;96.0
22676;DHT22;12521;43.310;21.876;2024-01-30T11:36:37;5.3;96.0
22676;DHT22;12521;43.310;21.876;2024-01-30T11:41:17;5.3;96.0
22676;DHT22;12521;43.310;21.876;2024-01-30T11:45:53;5.3;96.0
22676;DHT22;12521;43.310;21.876;2024-01-30T11:50:31;5.3;96.0
22676;DHT22;12521;43.310;21.876;2024-01-30T11:55:10;5.3;96.0
22676;DHT22;12521;43.310;21.876;2024-01-30T11:59:46;5.3;96.0
22676;DHT22;12521;43.310;21.876;2024-01-30T23:07:51;1.9;96.0
22676;DHT22;12521;43.310;21.876;2024-01-30T23:12:28;1.9;96.0
22676;DHT22;12521;43.310;21.876;2024-01-30T23:17:05;1.9;96.0
22676;DHT22;12521;43.310;21.876;2024-01-30T23:21:42;1.9;96.0
22676;DHT22;12521;43.310;21.876;2024-01-30T23:26:19;1.9;96.0
22676;DHT22;12521;43.310;21.876;2024-01-30T23:30:55;1.9;96.0
22676;DHT22;12521;43.310;21.876;2024-01-30T23:35:32;1.9;96.0
